< < Back
Terminal Aerodrome Forecast


Current Version              Previous Versions:   1  2  3  4  5  6  7  8  9  

Terminal Aerodrome Forecast

993
FTUS42 KILM 291720
TAFILM
TAF
KILM 291720Z 2918/3018 13012G21KT 6SM -SHRA BKN030
      TEMPO 2918/2922 3SM +SHRA BKN018
     FM300100 12004KT 6SM -SHRA BKN014
     FM300700 13004KT P6SM VCSH BKN008
     FM301100 14006KT 5SM -SHRA BKN016=



Latest METAR

973
SAUS70 KWBC 292300 RRE
MTRILM
METAR KILM 292253Z AUTO 15007KT 120V180 10SM FEW050 26/21 A2999 RMK AO2
SLP153 T02560211


USA.gov is the U.S. government's official web portal to all federal, state and local government web resources and services.